createdAt,value
2017-11-10T00:00:12.181Z,70.55
2017-11-10T00:00:46.061Z,77.75
2017-11-10T00:01:19.949Z,74.43
2017-11-10T00:01:53.826Z,73.55
2017-11-10T00:02:27.733Z,72.93
2017-11-10T00:03:01.637Z,77.85
2017-11-10T00:03:35.506Z,75.10
2017-11-10T00:04:09.406Z,72.75
2017-11-10T00:04:43.333Z,67.05
2017-11-10T00:05:17.255Z,74.22
2017-11-10T00:05:51.152Z,79.95
2017-11-10T00:06:25.048Z,73.47
2017-11-10T00:06:58.949Z,78.50
2017-11-10T00:07:32.850Z,76.43
2017-11-10T00:08:06.734Z,75.25
2017-11-10T00:08:40.602Z,75.12
2017-11-10T00:09:14.506Z,73.05
2017-11-10T00:09:48.404Z,78.32
2017-11-10T00:10:22.284Z,71.15
2017-11-10T00:10:56.166Z,67.30
2017-11-10T00:11:30.058Z,78.75
2017-11-10T00:12:03.943Z,73.87
2017-11-10T00:12:37.822Z,69.47
2017-11-10T00:13:11.731Z,70.10
2017-11-10T00:13:45.597Z,72.60
2017-11-10T00:14:19.499Z,74.50
2017-11-10T00:14:53.398Z,68.78
2017-11-10T00:15:27.294Z,68.78
2017-11-10T00:16:01.197Z,70.25
2017-11-10T00:16:35.088Z,73.50
2017-11-10T00:17:08.985Z,69.53
2017-11-10T00:17:42.890Z,80.03
2017-11-10T00:18:16.769Z,73.72
2017-11-10T00:18:50.669Z,70.72
2017-11-10T00:19:24.563Z,75.10
2017-11-10T00:19:58.475Z,75.53
2017-11-10T00:20:32.345Z,74.00
2017-11-10T00:21:06.280Z,72.55
2017-11-10T00:21:40.360Z,71.18
2017-11-10T00:22:14.240Z,77.87
2017-11-10T00:22:48.131Z,78.70
2017-11-10T00:23:22.009Z,76.95
2017-11-10T00:23:55.899Z,78.05
2017-11-10T00:24:29.780Z,75.80
2017-11-10T00:25:03.682Z,81.95
2017-11-10T00:25:37.582Z,84.82
2017-11-10T00:26:11.466Z,69.50
2017-11-10T00:26:45.348Z,70.32
2017-11-10T00:27:19.224Z,80.95
2017-11-10T00:27:53.129Z,75.20
2017-11-10T00:28:27.007Z,69.15
2017-11-10T00:29:00.894Z,74.70
2017-11-10T00:29:34.776Z,77.65
2017-11-10T00:30:08.668Z,77.50
2017-11-10T00:30:42.557Z,68.00
2017-11-10T00:31:16.430Z,67.35
2017-11-10T00:31:50.309Z,70.95
2017-11-10T00:32:24.204Z,72.22
2017-11-10T00:32:58.082Z,76.05
2017-11-10T00:33:31.976Z,74.65
2017-11-10T00:34:05.964Z,73.57
2017-11-10T00:34:39.839Z,71.00
2017-11-10T00:35:13.752Z,74.25
2017-11-10T00:35:47.656Z,70.78
2017-11-10T00:36:21.534Z,70.60
2017-11-10T00:36:55.454Z,66.35
2017-11-10T00:37:29.349Z,65.78
2017-11-10T00:38:03.244Z,70.60
2017-11-10T00:38:37.147Z,74.47
2017-11-10T00:39:11.025Z,73.82
2017-11-10T00:39:44.901Z,71.93
2017-11-10T00:40:18.799Z,67.72
2017-11-10T00:40:52.688Z,77.45
2017-11-10T00:41:26.601Z,78.12
2017-11-10T00:42:00.463Z,79.70
2017-11-10T00:42:34.341Z,69.40
2017-11-10T00:43:08.237Z,72.50
2017-11-10T00:43:42.117Z,60.10
2017-11-10T00:44:16.003Z,70.40
2017-11-10T00:44:49.906Z,67.15
2017-11-10T00:45:23.815Z,64.10
2017-11-10T00:45:57.709Z,72.22
2017-11-10T00:46:31.601Z,70.80
2017-11-10T00:47:05.502Z,72.30
2017-11-10T00:47:39.389Z,68.10
2017-11-10T00:48:13.259Z,71.62
2017-11-10T00:48:47.149Z,65.45
2017-11-10T00:49:21.025Z,71.47
2017-11-10T00:49:54.916Z,67.37
2017-11-10T00:50:28.835Z,64.80
2017-11-10T00:51:02.720Z,71.03
2017-11-10T00:51:36.589Z,70.55
2017-11-10T00:52:10.476Z,71.50
2017-11-10T00:52:44.351Z,71.45
2017-11-10T00:53:18.234Z,72.87
2017-11-10T00:53:52.132Z,74.22
2017-11-10T00:54:26.012Z,71.57
2017-11-10T00:54:59.904Z,69.93
2017-11-10T00:55:33.795Z,72.57
2017-11-10T00:56:07.682Z,71.97
2017-11-10T00:56:41.588Z,73.87
2017-11-10T00:57:15.461Z,72.37
2017-11-10T00:57:49.373Z,70.07
2017-11-10T00:58:23.252Z,72.53
2017-11-10T00:59:00.055Z,67.97
2017-11-10T00:59:33.952Z,71.60
2017-11-10T01:00:07.847Z,67.47
2017-11-10T01:00:41.746Z,87.80
2017-11-10T01:01:15.729Z,72.22
2017-11-10T01:01:49.631Z,72.87
2017-11-10T01:02:23.523Z,75.87
2017-11-10T01:02:57.416Z,75.32
2017-11-10T01:03:31.311Z,79.32
2017-11-10T01:04:05.208Z,74.55
2017-11-10T01:04:39.105Z,70.43
2017-11-10T01:05:13.000Z,73.75
2017-11-10T01:05:46.924Z,72.32
2017-11-10T01:06:20.819Z,78.55
2017-11-10T01:06:54.723Z,81.28
2017-11-10T01:07:28.615Z,72.50
2017-11-10T01:08:05.161Z,71.78
2017-11-10T01:08:39.105Z,67.25
2017-11-10T01:09:12.980Z,68.57
2017-11-10T01:09:46.874Z,82.25
2017-11-10T01:10:20.789Z,74.22
2017-11-10T01:10:54.679Z,75.70
2017-11-10T01:11:28.560Z,79.12
2017-11-10T01:12:02.438Z,74.47
2017-11-10T01:12:37.132Z,72.22
2017-11-10T01:13:13.837Z,80.32
2017-11-10T01:13:49.645Z,73.87
2017-11-10T01:14:23.537Z,74.70
2017-11-10T01:14:57.428Z,78.53
2017-11-10T01:15:31.932Z,71.37
2017-11-10T01:16:06.409Z,74.15
2017-11-10T01:16:42.150Z,68.40
2017-11-10T01:17:16.044Z,75.07
2017-11-10T01:17:50.350Z,68.85
2017-11-10T01:18:24.918Z,73.50
2017-11-10T01:18:59.362Z,73.43
2017-11-10T01:19:33.271Z,80.10
2017-11-10T01:20:07.162Z,80.70
2017-11-10T01:20:41.084Z,66.78
2017-11-10T01:21:14.994Z,74.40
2017-11-10T01:21:48.910Z,73.95
2017-11-10T01:22:22.824Z,70.57
2017-11-10T01:22:57.155Z,72.75
2017-11-10T01:23:31.032Z,76.30
2017-11-10T01:24:05.491Z,77.05
2017-11-10T01:24:39.642Z,72.97
2017-11-10T01:25:14.524Z,75.12
2017-11-10T01:25:48.430Z,74.60
2017-11-10T01:26:23.066Z,78.00
2017-11-10T01:26:57.750Z,84.40
2017-11-10T01:27:31.644Z,75.65
2017-11-10T01:28:05.557Z,72.12
2017-11-10T01:28:42.062Z,78.40
2017-11-10T01:29:16.006Z,87.12
2017-11-10T01:29:49.885Z,81.68
2017-11-10T01:30:24.585Z,73.60
2017-11-10T01:30:59.632Z,80.90
2017-11-10T01:31:34.351Z,74.00
2017-11-10T01:32:09.197Z,75.47
2017-11-10T01:32:43.659Z,85.90
2017-11-10T01:33:19.055Z,76.75
2017-11-10T01:34:34.936Z,71.12
2017-11-10T01:35:09.487Z,70.12
2017-11-10T01:35:44.170Z,77.90
2017-11-10T01:36:18.055Z,82.53
2017-11-10T01:36:52.868Z,77.45
2017-11-10T01:37:28.125Z,82.45
2017-11-10T01:38:02.024Z,69.62
2017-11-10T01:38:36.487Z,70.80
2017-11-10T01:39:10.879Z,78.90
2017-11-10T01:39:45.545Z,79.07
2017-11-10T01:40:19.434Z,79.93
2017-11-10T01:40:53.314Z,66.15
2017-11-10T01:41:27.196Z,84.93
2017-11-10T01:42:01.089Z,75.22
2017-11-10T01:42:35.600Z,70.40
2017-11-10T01:43:09.479Z,74.72
2017-11-10T01:43:43.872Z,70.35
2017-11-10T01:44:18.665Z,72.18
2017-11-10T01:44:52.582Z,67.43
2017-11-10T01:45:26.469Z,74.20
2017-11-10T01:46:01.635Z,74.93
2017-11-10T01:46:35.935Z,72.75
2017-11-10T01:47:09.900Z,69.70
2017-11-10T01:47:49.631Z,71.03
2017-11-10T01:48:40.531Z,66.75
2017-11-10T01:49:14.435Z,78.37
2017-11-10T01:49:54.124Z,60.03
2017-11-10T01:50:28.035Z,67.25
2017-11-10T01:51:01.917Z,68.95
2017-11-10T01:51:35.791Z,63.97
2017-11-10T01:52:09.686Z,74.87
2017-11-10T01:52:43.571Z,63.87
2017-11-10T01:53:17.465Z,69.78
2017-11-10T01:53:51.348Z,67.95
2017-11-10T01:54:25.238Z,69.12
2017-11-10T01:54:59.235Z,67.62
2017-11-10T01:55:33.134Z,63.80
2017-11-10T01:56:07.803Z,67.35
2017-11-10T01:56:41.732Z,73.70
2017-11-10T01:57:16.047Z,76.05
2017-11-10T01:57:50.450Z,69.87
2017-11-10T01:58:24.345Z,65.37
2017-11-10T01:58:58.999Z,64.70
2017-11-10T01:59:33.997Z,70.20
2017-11-10T02:00:07.890Z,63.55
2017-11-10T02:00:41.773Z,67.53
2017-11-10T02:01:15.669Z,65.57
2017-11-10T02:01:49.559Z,65.32
2017-11-10T02:02:23.428Z,65.45
2017-11-10T02:02:57.344Z,72.47
2017-11-10T02:03:31.238Z,57.40
2017-11-10T02:04:05.751Z,59.15
2017-11-10T02:04:39.650Z,64.68
2017-11-10T02:05:14.572Z,63.90
2017-11-10T02:05:48.492Z,67.62
2017-11-10T02:06:22.399Z,61.72
2017-11-10T02:07:02.867Z,60.40
2017-11-10T02:07:36.768Z,63.90
2017-11-10T02:08:11.413Z,59.70
2017-11-10T02:08:45.365Z,58.97
2017-11-10T02:09:19.260Z,68.70
2017-11-10T02:09:53.159Z,63.03
2017-11-10T02:10:27.061Z,64.93
2017-11-10T02:11:00.941Z,60.15
2017-11-10T02:11:34.817Z,61.15
2017-11-10T02:12:08.734Z,67.93
2017-11-10T02:12:43.390Z,62.17
2017-11-10T02:13:17.293Z,62.60
2017-11-10T02:13:51.290Z,57.83
2017-11-10T02:14:26.952Z,56.75
2017-11-10T02:15:00.835Z,53.40
2017-11-10T02:15:34.713Z,63.95
2017-11-10T02:16:08.599Z,62.50
2017-11-10T02:16:42.484Z,64.15
2017-11-10T02:17:16.354Z,58.22
2017-11-10T02:17:50.240Z,66.70
2017-11-10T02:18:24.136Z,57.90
2017-11-10T02:18:58.034Z,61.42
2017-11-10T02:19:31.927Z,60.80
2017-11-10T02:20:05.860Z,58.97
2017-11-10T02:20:39.749Z,61.70
2017-11-10T02:21:13.643Z,59.97
2017-11-10T02:21:47.537Z,62.88
2017-11-10T02:22:21.444Z,69.00
2017-11-10T02:22:55.330Z,57.55
2017-11-10T02:23:29.222Z,59.45
2017-11-10T02:24:03.128Z,55.67
2017-11-10T02:24:37.012Z,60.55
2017-11-10T02:25:10.918Z,64.85
2017-11-10T02:25:44.800Z,61.83
2017-11-10T02:26:18.700Z,62.17
2017-11-10T02:26:52.597Z,65.57
2017-11-10T02:27:26.501Z,67.10
2017-11-10T02:28:00.413Z,57.92
2017-11-10T02:28:34.333Z,56.08
2017-11-10T02:29:08.235Z,65.68
2017-11-10T02:29:42.128Z,64.70
2017-11-10T02:30:16.019Z,56.85
2017-11-10T02:30:49.903Z,59.28
2017-11-10T02:31:23.792Z,67.60
2017-11-10T02:31:57.677Z,63.95
2017-11-10T02:32:31.578Z,63.45
2017-11-10T02:33:05.458Z,64.43
2017-11-10T02:33:39.365Z,63.30
2017-11-10T02:34:14.000Z,68.05
2017-11-10T02:34:50.697Z,63.00
2017-11-10T02:35:24.604Z,54.88
2017-11-10T02:35:58.493Z,60.20
2017-11-10T02:36:32.380Z,65.62
2017-11-10T02:37:06.278Z,64.15
2017-11-10T02:37:40.431Z,71.75
2017-11-10T02:38:14.309Z,69.10
2017-11-10T02:38:48.231Z,60.00
2017-11-10T02:39:30.578Z,71.60
2017-11-10T02:40:04.460Z,60.12
2017-11-10T02:40:38.345Z,69.55
2017-11-10T02:41:12.230Z,66.53
2017-11-10T02:41:47.054Z,66.07
2017-11-10T02:42:20.949Z,64.25
2017-11-10T02:42:54.860Z,69.55
2017-11-10T02:43:28.738Z,63.47
2017-11-10T02:44:02.686Z,68.70
2017-11-10T02:44:36.561Z,61.45
2017-11-10T02:45:13.196Z,66.70
2017-11-10T02:45:47.097Z,58.60
2017-11-10T02:46:21.148Z,69.12
2017-11-10T02:46:55.047Z,67.37
2017-11-10T02:47:28.940Z,66.70
2017-11-10T02:48:02.833Z,66.07
2017-11-10T02:48:36.736Z,59.92
2017-11-10T02:49:10.631Z,70.65
2017-11-10T02:49:44.500Z,63.45
2017-11-10T02:50:18.408Z,62.50
2017-11-10T02:50:52.411Z,64.85
2017-11-10T02:51:26.295Z,67.72
2017-11-10T02:52:00.169Z,69.15
2017-11-10T02:52:34.050Z,61.00
2017-11-10T02:53:07.936Z,56.00
2017-11-10T02:53:41.821Z,61.95
2017-11-10T02:54:15.720Z,65.45
2017-11-10T02:54:49.615Z,69.03
2017-11-10T02:55:23.498Z,62.80
2017-11-10T02:55:57.469Z,77.55
2017-11-10T02:56:31.359Z,70.12
2017-11-10T02:57:05.247Z,64.62
2017-11-10T02:57:39.188Z,61.60
2017-11-10T02:58:13.081Z,66.65
2017-11-10T02:58:46.980Z,64.07
2017-11-10T02:59:20.896Z,61.95
2017-11-10T02:59:54.788Z,67.35
2017-11-10T03:00:28.680Z,67.22
2017-11-10T03:01:02.575Z,66.22
2017-11-10T03:01:36.482Z,55.38
2017-11-10T03:02:10.399Z,61.30
2017-11-10T03:02:44.275Z,63.55
2017-11-10T03:03:18.157Z,64.78
2017-11-10T03:03:52.041Z,66.70
2017-11-10T03:04:25.937Z,63.35
2017-11-10T03:04:59.846Z,65.87
2017-11-10T03:05:33.791Z,62.95
2017-11-10T03:06:07.673Z,61.40
2017-11-10T03:06:41.567Z,55.65
2017-11-10T03:07:15.462Z,64.93
2017-11-10T03:07:49.349Z,61.92
2017-11-10T03:08:23.258Z,56.47
2017-11-10T03:08:57.137Z,53.80
2017-11-10T03:09:31.030Z,60.15
2017-11-10T03:10:04.919Z,60.70
2017-11-10T03:10:38.818Z,59.70
2017-11-10T03:11:12.726Z,62.47
2017-11-10T03:11:46.612Z,53.35
2017-11-10T03:12:20.501Z,65.80
2017-11-10T03:12:54.371Z,59.55
2017-11-10T03:13:28.253Z,68.97
2017-11-10T03:14:02.135Z,57.72
2017-11-10T03:14:36.039Z,61.13
2017-11-10T03:15:09.918Z,60.63
2017-11-10T03:15:43.808Z,58.63
2017-11-10T03:16:17.698Z,61.05
2017-11-10T03:16:51.595Z,53.53
2017-11-10T03:17:25.479Z,72.45
2017-11-10T03:17:59.368Z,57.72
2017-11-10T03:18:33.243Z,55.80
2017-11-10T03:19:07.149Z,65.80
2017-11-10T03:19:41.070Z,55.38
2017-11-10T03:20:14.967Z,64.80
2017-11-10T03:20:48.857Z,60.35
2017-11-10T03:21:22.756Z,59.30
2017-11-10T03:21:56.629Z,59.10
2017-11-10T03:22:30.501Z,59.80
2017-11-10T03:23:04.383Z,61.30
2017-11-10T03:23:38.269Z,65.55
2017-11-10T03:24:12.137Z,58.97
2017-11-10T03:24:46.024Z,58.90
2017-11-10T03:25:19.909Z,59.15
2017-11-10T03:25:53.805Z,60.00
2017-11-10T03:26:27.700Z,56.85
2017-11-10T03:27:01.588Z,50.30
2017-11-10T03:27:35.461Z,54.65
2017-11-10T03:28:09.356Z,55.90
2017-11-10T03:28:43.244Z,55.92
2017-11-10T03:29:17.136Z,62.03
2017-11-10T03:29:51.069Z,62.13
2017-11-10T03:30:24.972Z,65.37
2017-11-10T03:30:58.857Z,54.42
2017-11-10T03:31:32.731Z,57.33
2017-11-10T03:32:06.624Z,64.00
2017-11-10T03:32:40.518Z,59.03
2017-11-10T03:33:14.406Z,58.05
2017-11-10T03:33:48.300Z,59.28
2017-11-10T03:34:22.202Z,59.33
2017-11-10T03:34:56.092Z,55.67
2017-11-10T03:35:29.981Z,61.53
2017-11-10T03:36:03.879Z,55.75
2017-11-10T03:36:37.771Z,57.83
2017-11-10T03:37:11.657Z,53.10
2017-11-10T03:37:45.553Z,55.35
2017-11-10T03:38:19.487Z,53.45
2017-11-10T03:38:53.378Z,62.47
2017-11-10T03:39:27.259Z,48.72
2017-11-10T03:40:01.174Z,56.40
2017-11-10T03:40:35.066Z,56.03
2017-11-10T03:41:08.944Z,50.55
2017-11-10T03:41:42.812Z,56.97
2017-11-10T03:42:16.694Z,60.05
2017-11-10T03:42:50.617Z,54.67
2017-11-10T03:43:24.497Z,53.38
2017-11-10T03:43:58.373Z,60.58
2017-11-10T03:44:32.258Z,60.70
2017-11-10T03:45:06.164Z,57.70
2017-11-10T03:45:40.043Z,58.47
2017-11-10T03:46:13.917Z,54.05
2017-11-10T03:46:47.814Z,59.65
2017-11-10T03:47:21.698Z,57.53
2017-11-10T03:47:55.593Z,51.50
2017-11-10T03:48:29.501Z,55.60
2017-11-10T03:49:03.384Z,51.08
2017-11-10T03:49:37.316Z,56.92
2017-11-10T03:50:11.224Z,55.35
2017-11-10T03:50:45.126Z,55.83
2017-11-10T03:51:19.077Z,50.28
2017-11-10T03:51:52.960Z,56.20
2017-11-10T03:52:26.842Z,54.17
2017-11-10T03:53:00.754Z,51.78
2017-11-10T03:53:34.738Z,55.95
2017-11-10T03:54:08.656Z,56.72
2017-11-10T03:54:42.534Z,51.70
2017-11-10T03:55:16.424Z,55.78
2017-11-10T03:55:50.284Z,67.97
2017-11-10T03:56:24.165Z,57.75
2017-11-10T03:56:58.075Z,56.95
2017-11-10T03:57:31.970Z,60.28
2017-11-10T03:58:05.861Z,56.78
2017-11-10T03:58:39.744Z,59.85
2017-11-10T03:59:13.628Z,61.97
2017-11-10T03:59:47.518Z,57.50
2017-11-10T04:00:21.415Z,62.85
2017-11-10T04:00:55.326Z,57.70
2017-11-10T04:01:29.208Z,61.13
2017-11-10T04:02:03.092Z,60.70
2017-11-10T04:02:36.986Z,56.33
2017-11-10T04:03:10.950Z,58.50
2017-11-10T04:03:44.827Z,59.92
2017-11-10T04:04:18.717Z,54.67
2017-11-10T04:04:52.604Z,53.00
2017-11-10T04:05:26.513Z,58.80
2017-11-10T04:06:00.407Z,62.15
2017-11-10T04:06:34.299Z,60.12
2017-11-10T04:07:08.194Z,60.65
2017-11-10T04:07:42.115Z,65.57
2017-11-10T04:08:15.998Z,57.75
2017-11-10T04:08:49.899Z,59.65
2017-11-10T04:09:23.796Z,64.45
2017-11-10T04:09:57.691Z,61.28
2017-11-10T04:10:31.618Z,68.05
2017-11-10T04:11:05.503Z,63.22
2017-11-10T04:11:39.376Z,65.72
2017-11-10T04:12:13.272Z,71.18
2017-11-10T04:12:47.158Z,56.92
2017-11-10T04:13:21.121Z,63.38
2017-11-10T04:13:55.022Z,57.92
2017-11-10T04:14:28.913Z,65.62
2017-11-10T04:15:02.862Z,62.22
2017-11-10T04:15:36.764Z,65.30
2017-11-10T04:16:10.686Z,65.20
2017-11-10T04:16:44.567Z,59.70
2017-11-10T04:17:18.446Z,63.97
2017-11-10T04:17:52.332Z,58.60
2017-11-10T04:18:26.210Z,58.92
2017-11-10T04:19:00.087Z,57.20
2017-11-10T04:19:33.973Z,59.85
2017-11-10T04:20:07.859Z,56.65
2017-11-10T04:20:41.761Z,58.85
2017-11-10T04:21:15.646Z,67.72
2017-11-10T04:21:49.533Z,67.78
2017-11-10T04:22:23.421Z,62.38
2017-11-10T04:22:57.321Z,62.72
2017-11-10T04:23:31.202Z,68.07
2017-11-10T04:24:05.083Z,64.90
2017-11-10T04:24:38.981Z,54.45
2017-11-10T04:25:12.877Z,57.97
2017-11-10T04:25:46.836Z,56.95
2017-11-10T04:26:20.772Z,65.40
2017-11-10T04:26:54.644Z,59.03
2017-11-10T04:27:28.519Z,56.42
2017-11-10T04:28:02.401Z,58.10
2017-11-10T04:28:36.296Z,57.88
2017-11-10T04:29:10.192Z,53.78
2017-11-10T04:29:44.073Z,63.65
2017-11-10T04:30:17.997Z,61.10
2017-11-10T04:30:51.899Z,56.28
2017-11-10T04:31:25.781Z,58.03
2017-11-10T04:31:59.679Z,60.97
2017-11-10T04:32:33.565Z,63.80
2017-11-10T04:33:07.486Z,61.70
2017-11-10T04:33:41.370Z,62.60
2017-11-10T04:34:15.267Z,57.40
2017-11-10T04:34:49.152Z,63.70
2017-11-10T04:35:23.044Z,60.08
2017-11-10T04:35:56.970Z,66.65
2017-11-10T04:36:30.865Z,58.35
2017-11-10T04:37:04.834Z,61.95
2017-11-10T04:37:38.760Z,60.35
2017-11-10T04:38:12.659Z,61.45
2017-11-10T04:38:46.556Z,58.00
2017-11-10T04:39:20.491Z,59.42
2017-11-10T04:39:54.378Z,58.42
2017-11-10T04:40:28.365Z,61.42
2017-11-10T04:41:02.284Z,58.65
2017-11-10T04:41:36.164Z,64.30
2017-11-10T04:42:10.094Z,66.62
2017-11-10T04:42:43.989Z,68.57
2017-11-10T04:43:17.861Z,63.60
2017-11-10T04:43:51.735Z,62.20
2017-11-10T04:44:25.620Z,62.92
2017-11-10T04:44:59.517Z,63.85
2017-11-10T04:45:33.400Z,66.50
2017-11-10T04:46:07.321Z,60.33
2017-11-10T04:46:41.218Z,63.05
2017-11-10T04:47:15.111Z,66.68
2017-11-10T04:47:49.002Z,52.13
2017-11-10T04:48:22.891Z,64.85
2017-11-10T04:48:56.787Z,64.62
2017-11-10T04:49:30.699Z,60.75
2017-11-10T04:50:04.653Z,62.20
2017-11-10T04:50:38.544Z,65.18
2017-11-10T04:51:12.441Z,64.72
2017-11-10T04:51:46.518Z,61.08
2017-11-10T04:52:20.415Z,68.40
2017-11-10T04:52:54.300Z,67.75
2017-11-10T04:53:28.202Z,71.07
2017-11-10T04:54:02.081Z,59.03
2017-11-10T04:54:35.977Z,68.22
2017-11-10T04:55:09.872Z,61.33
2017-11-10T04:55:43.774Z,58.25
2017-11-10T04:56:17.776Z,58.35
2017-11-10T04:56:51.907Z,65.03
2017-11-10T04:57:25.905Z,62.85
2017-11-10T04:57:59.787Z,68.00
2017-11-10T04:58:33.685Z,62.25
2017-11-10T04:59:07.569Z,64.47
2017-11-10T04:59:41.528Z,60.12
2017-11-10T05:00:15.437Z,58.17
2017-11-10T05:00:49.343Z,60.80
2017-11-10T05:01:23.459Z,64.05
2017-11-10T05:01:57.364Z,60.17
2017-11-10T05:02:31.241Z,62.58
2017-11-10T05:03:05.144Z,57.22
2017-11-10T05:03:39.055Z,63.13
2017-11-10T05:04:12.942Z,59.80
2017-11-10T05:04:46.827Z,55.53
2017-11-10T05:05:20.749Z,63.10
2017-11-10T05:05:54.688Z,62.92
2017-11-10T05:06:28.582Z,59.17
2017-11-10T05:07:02.459Z,61.15
2017-11-10T05:07:36.392Z,61.10
2017-11-10T05:08:10.290Z,60.42
2017-11-10T05:08:44.185Z,61.80
2017-11-10T05:09:18.074Z,58.87
2017-11-10T05:09:51.981Z,59.97
2017-11-10T05:10:25.918Z,57.75
2017-11-10T05:10:59.821Z,63.25
2017-11-10T05:11:33.734Z,63.60
2017-11-10T05:12:07.636Z,62.65
2017-11-10T05:12:41.544Z,59.25
2017-11-10T05:13:15.425Z,61.97
2017-11-10T05:13:49.318Z,64.93
2017-11-10T05:14:23.221Z,60.20
2017-11-10T05:14:57.109Z,59.38
2017-11-10T05:15:31.034Z,57.95
2017-11-10T05:16:04.918Z,63.70
2017-11-10T05:16:38.896Z,61.33
2017-11-10T05:17:12.818Z,52.62
2017-11-10T05:17:46.707Z,59.83
2017-11-10T05:18:20.596Z,57.67
2017-11-10T05:18:54.493Z,61.00
2017-11-10T05:19:28.384Z,66.80
2017-11-10T05:20:02.268Z,60.95
2017-11-10T05:20:36.151Z,63.92
2017-11-10T05:21:10.047Z,56.70
2017-11-10T05:21:43.939Z,62.05
2017-11-10T05:22:17.858Z,56.95
2017-11-10T05:22:51.759Z,59.92
2017-11-10T05:23:25.659Z,62.35
2017-11-10T05:23:59.533Z,60.12
2017-11-10T05:24:33.411Z,57.42
2017-11-10T05:25:07.308Z,55.88
2017-11-10T05:25:41.244Z,54.47
2017-11-10T05:26:15.189Z,61.78
2017-11-10T05:26:49.130Z,61.05
2017-11-10T05:27:23.026Z,64.05
2017-11-10T05:27:56.918Z,63.13
2017-11-10T05:28:30.809Z,57.50
2017-11-10T05:29:04.704Z,61.58
2017-11-10T05:29:38.599Z,61.40
2017-11-10T05:30:12.490Z,56.83
2017-11-10T05:30:46.388Z,60.95
2017-11-10T05:31:20.289Z,62.92
2017-11-10T05:31:54.215Z,49.22
2017-11-10T05:32:28.114Z,63.25
2017-11-10T05:33:01.993Z,62.22
2017-11-10T05:33:35.898Z,60.00
2017-11-10T05:34:09.797Z,58.50
2017-11-10T05:34:43.703Z,56.70
2017-11-10T05:35:17.591Z,60.90
2017-11-10T05:35:52.473Z,59.05
2017-11-10T05:36:26.469Z,57.65
2017-11-10T05:37:00.366Z,55.28
2017-11-10T05:37:34.251Z,57.45
2017-11-10T05:38:08.141Z,48.55
2017-11-10T05:38:42.043Z,64.50
2017-11-10T05:39:16.044Z,61.92
2017-11-10T05:39:49.921Z,51.95
2017-11-10T05:40:23.848Z,55.25
2017-11-10T05:40:57.868Z,61.20
2017-11-10T05:41:31.761Z,58.22
2017-11-10T05:42:05.712Z,54.40
2017-11-10T05:42:39.706Z,55.47
2017-11-10T05:43:13.611Z,62.00
2017-11-10T05:43:47.749Z,60.30
2017-11-10T05:44:21.717Z,59.72
2017-11-10T05:44:55.629Z,65.15
2017-11-10T05:45:29.554Z,59.70
2017-11-10T05:46:03.455Z,56.30
2017-11-10T05:46:37.359Z,58.47
2017-11-10T05:47:11.308Z,65.57
2017-11-10T05:47:45.201Z,51.85
2017-11-10T05:48:19.105Z,52.42
2017-11-10T05:48:53.085Z,55.65
2017-11-10T05:49:26.991Z,62.53
2017-11-10T05:50:01.870Z,62.05
2017-11-10T05:50:35.764Z,51.63
2017-11-10T05:51:09.670Z,61.03
2017-11-10T05:51:43.563Z,64.50
2017-11-10T05:52:17.477Z,56.50
2017-11-10T05:52:51.434Z,58.35
2017-11-10T05:53:25.319Z,53.33
2017-11-10T05:53:59.235Z,55.60
2017-11-10T05:54:33.133Z,56.70
2017-11-10T05:55:07.059Z,54.13
2017-11-10T05:55:40.952Z,59.15
2017-11-10T05:56:14.821Z,57.15
2017-11-10T05:56:48.699Z,59.10
2017-11-10T05:57:22.881Z,57.05
2017-11-10T05:57:56.756Z,58.13
2017-11-10T05:58:30.641Z,63.20
2017-11-10T05:59:04.518Z,54.92
2017-11-10T05:59:38.417Z,59.58
2017-11-10T06:00:12.356Z,55.47
2017-11-10T06:00:46.244Z,58.28
2017-11-10T06:01:20.145Z,62.65
2017-11-10T06:01:54.051Z,71.35
2017-11-10T06:02:28.003Z,64.45
2017-11-10T06:03:02.247Z,58.65
2017-11-10T06:03:36.178Z,55.80
2017-11-10T06:04:10.085Z,58.25
2017-11-10T06:04:44.037Z,57.50
2017-11-10T06:05:18.023Z,54.13
2017-11-10T06:05:51.917Z,67.35
2017-11-10T06:06:25.844Z,58.78
2017-11-10T06:06:59.804Z,59.05
2017-11-10T06:07:33.738Z,61.28
2017-11-10T06:08:07.631Z,54.60
2017-11-10T06:08:41.609Z,59.00
2017-11-10T06:09:15.640Z,60.38
2017-11-10T06:09:49.552Z,54.15
2017-11-10T06:10:23.672Z,64.85
2017-11-10T06:10:57.582Z,59.35
2017-11-10T06:11:31.476Z,55.30
2017-11-10T06:12:05.880Z,59.97
2017-11-10T06:12:39.777Z,58.60
2017-11-10T06:13:13.703Z,59.63
2017-11-10T06:13:47.619Z,62.88
2017-11-10T06:14:21.536Z,62.58
2017-11-10T06:14:55.729Z,62.75
2017-11-10T06:15:29.622Z,55.97
2017-11-10T06:16:03.511Z,54.63
2017-11-10T06:16:37.422Z,54.70
2017-11-10T06:17:12.420Z,57.15
2017-11-10T06:17:46.361Z,58.63
2017-11-10T06:18:20.362Z,54.80
2017-11-10T06:18:54.264Z,54.13
2017-11-10T06:19:28.147Z,64.53
2017-11-10T06:20:05.668Z,57.72
2017-11-10T06:20:39.703Z,60.67
2017-11-10T06:21:13.632Z,53.13
2017-11-10T06:21:47.520Z,50.95
2017-11-10T06:22:21.427Z,55.60
2017-11-10T06:22:55.377Z,58.70
2017-11-10T06:23:29.280Z,55.75
2017-11-10T06:24:03.311Z,50.45
2017-11-10T06:24:37.205Z,57.33
2017-11-10T06:25:11.099Z,59.08
2017-11-10T06:25:44.984Z,53.55
2017-11-10T06:26:18.919Z,54.83
2017-11-10T06:26:52.812Z,64.00
2017-11-10T06:27:26.707Z,64.70
2017-11-10T06:28:00.606Z,51.08
2017-11-10T06:28:34.495Z,70.15
2017-11-10T06:29:08.380Z,57.88
2017-11-10T06:29:42.309Z,59.42
2017-11-10T06:30:16.268Z,62.95
2017-11-10T06:30:50.208Z,57.33
2017-11-10T06:31:24.144Z,61.35
2017-11-10T06:31:58.059Z,57.60
2017-11-10T06:32:31.988Z,54.38
2017-11-10T06:33:06.053Z,59.60
2017-11-10T06:33:40.001Z,53.13
2017-11-10T06:34:13.925Z,57.65
2017-11-10T06:34:47.851Z,59.25
2017-11-10T06:35:21.805Z,62.13
2017-11-10T06:35:55.806Z,59.28
2017-11-10T06:36:30.741Z,62.33
2017-11-10T06:37:04.734Z,58.45
2017-11-10T06:37:38.647Z,52.33
2017-11-10T06:38:12.573Z,56.08
2017-11-10T06:38:46.476Z,57.30
2017-11-10T06:39:20.379Z,60.78
2017-11-10T06:39:54.320Z,49.97
2017-11-10T06:40:28.212Z,57.55
2017-11-10T06:41:02.194Z,57.30
2017-11-10T06:41:36.096Z,60.45
2017-11-10T06:42:10.022Z,54.85
2017-11-10T06:42:44.013Z,59.70
2017-11-10T06:43:17.945Z,63.45
2017-11-10T06:43:51.876Z,53.08
2017-11-10T06:44:25.780Z,60.80
2017-11-10T06:44:59.704Z,51.20
2017-11-10T06:45:33.600Z,59.10
2017-11-10T06:46:07.513Z,62.78
2017-11-10T06:46:41.452Z,63.92
2017-11-10T06:47:15.501Z,58.63
2017-11-10T06:47:49.435Z,59.97
2017-11-10T06:48:23.336Z,59.97
2017-11-10T06:48:57.248Z,57.70
2017-11-10T06:49:31.175Z,55.03
2017-11-10T06:50:05.065Z,53.63
2017-11-10T06:50:39.003Z,60.05
2017-11-10T06:51:12.907Z,56.33
2017-11-10T06:51:46.825Z,60.90
2017-11-10T06:52:20.729Z,57.28
2017-11-10T06:52:54.617Z,51.60
2017-11-10T06:53:28.513Z,63.08
2017-11-10T06:54:02.449Z,56.50
2017-11-10T06:54:36.336Z,57.95
2017-11-10T06:55:10.225Z,57.95
2017-11-10T06:55:44.126Z,58.03
2017-11-10T06:56:18.132Z,52.72
2017-11-10T06:56:52.036Z,54.92
2017-11-10T06:57:26.219Z,53.70
2017-11-10T06:58:00.104Z,60.05
2017-11-10T06:58:34.010Z,63.17
2017-11-10T06:59:07.924Z,52.03
2017-11-10T06:59:41.810Z,60.17
2017-11-10T07:00:15.761Z,54.83
2017-11-10T07:00:49.694Z,52.10
2017-11-10T07:01:23.591Z,53.60
2017-11-10T07:01:57.478Z,56.75
2017-11-10T07:02:31.443Z,55.33
2017-11-10T07:03:05.355Z,59.70
2017-11-10T07:03:39.272Z,56.83
2017-11-10T07:04:13.166Z,67.78
2017-11-10T07:04:47.163Z,57.40
2017-11-10T07:05:21.137Z,58.35
2017-11-10T07:05:55.091Z,55.28
2017-11-10T07:06:28.981Z,61.83
2017-11-10T07:07:03.835Z,62.00
2017-11-10T07:07:37.808Z,55.65
2017-11-10T07:08:11.673Z,64.00
2017-11-10T07:08:45.606Z,55.92
2017-11-10T07:09:19.506Z,57.03
2017-11-10T07:09:53.374Z,57.40
2017-11-10T07:10:28.165Z,58.72
2017-11-10T07:11:02.067Z,48.95
2017-11-10T07:11:36.057Z,56.75
2017-11-10T07:12:10.032Z,57.03
2017-11-10T07:12:44.258Z,55.12
2017-11-10T07:13:18.349Z,53.60
2017-11-10T07:13:52.304Z,53.67
2017-11-10T07:14:26.232Z,63.95
2017-11-10T07:15:00.131Z,57.10
2017-11-10T07:15:34.209Z,58.58
2017-11-10T07:16:08.103Z,54.63
2017-11-10T07:16:41.980Z,55.28
2017-11-10T07:17:15.893Z,53.08
2017-11-10T07:17:49.926Z,57.88
2017-11-10T07:18:23.902Z,60.83
2017-11-10T07:18:57.802Z,51.53